sensor_id;sensor_type;location;lat;lon;timestamp;P1;durP1;ratioP1;P2;durP2;ratioP2
5650;SDS011;40241;52.684;9.758;2022-12-05T00:01:25;54.97;;;21.47;;
5650;SDS011;40241;52.684;9.758;2022-12-05T00:04:06;52.43;;;19.93;;
5650;SDS011;40241;52.684;9.758;2022-12-05T00:06:39;52.07;;;18.80;;
5650;SDS011;40241;52.684;9.758;2022-12-05T00:09:13;55.10;;;21.40;;
5650;SDS011;40241;52.684;9.758;2022-12-05T00:11:55;47.23;;;18.00;;
5650;SDS011;40241;52.684;9.758;2022-12-05T00:14:33;56.13;;;19.20;;
5650;SDS011;40241;52.684;9.758;2022-12-05T00:17:01;49.20;;;18.97;;
5650;SDS011;40241;52.684;9.758;2022-12-05T00:19:31;57.97;;;20.07;;
5650;SDS011;40241;52.684;9.758;2022-12-05T00:21:57;51.20;;;19.87;;
5650;SDS011;40241;52.684;9.758;2022-12-05T00:24:24;49.17;;;19.57;;
5650;SDS011;40241;52.684;9.758;2022-12-05T00:26:55;53.40;;;19.53;;
5650;SDS011;40241;52.684;9.758;2022-12-05T00:29:25;52.07;;;20.83;;
5650;SDS011;40241;52.684;9.758;2022-12-05T00:31:56;60.27;;;19.27;;
5650;SDS011;40241;52.684;9.758;2022-12-05T00:34:21;61.23;;;19.33;;
5650;SDS011;40241;52.684;9.758;2022-12-05T00:36:47;44.93;;;19.63;;
5650;SDS011;40241;52.684;9.758;2022-12-05T00:39:13;47.83;;;21.70;;
5650;SDS011;40241;52.684;9.758;2022-12-05T00:41:39;48.90;;;19.87;;
5650;SDS011;40241;52.684;9.758;2022-12-05T00:44:05;49.30;;;19.07;;
5650;SDS011;40241;52.684;9.758;2022-12-05T00:46:31;48.60;;;18.33;;
5650;SDS011;40241;52.684;9.758;2022-12-05T00:48:58;48.80;;;19.27;;
5650;SDS011;40241;52.684;9.758;2022-12-05T00:51:29;51.70;;;18.30;;
5650;SDS011;40241;52.684;9.758;2022-12-05T00:53:58;53.00;;;20.40;;
5650;SDS011;40241;52.684;9.758;2022-12-05T00:56:28;49.07;;;19.60;;
5650;SDS011;40241;52.684;9.758;2022-12-05T00:58:55;47.90;;;18.47;;
5650;SDS011;40241;52.684;9.758;2022-12-05T01:01:26;51.13;;;19.37;;
5650;SDS011;40241;52.684;9.758;2022-12-05T01:04:00;53.80;;;20.23;;
5650;SDS011;40241;52.684;9.758;2022-12-05T01:06:29;52.77;;;20.57;;
5650;SDS011;40241;52.684;9.758;2022-12-05T01:08:55;48.97;;;20.00;;
5650;SDS011;40241;52.684;9.758;2022-12-05T01:11:22;48.50;;;19.20;;
5650;SDS011;40241;52.684;9.758;2022-12-05T01:16:27;50.03;;;19.10;;
5650;SDS011;40241;52.684;9.758;2022-12-05T01:18:56;45.17;;;18.37;;
5650;SDS011;40241;52.684;9.758;2022-12-05T01:21:22;48.93;;;19.50;;
5650;SDS011;40241;52.684;9.758;2022-12-05T01:23:48;57.07;;;19.93;;
5650;SDS011;40241;52.684;9.758;2022-12-05T01:26:14;50.07;;;19.83;;
5650;SDS011;40241;52.684;9.758;2022-12-05T01:28:41;44.27;;;16.73;;
5650;SDS011;40241;52.684;9.758;2022-12-05T01:31:08;49.80;;;19.40;;
5650;SDS011;40241;52.684;9.758;2022-12-05T01:33:40;50.03;;;19.27;;
5650;SDS011;40241;52.684;9.758;2022-12-05T01:36:08;48.60;;;19.30;;
5650;SDS011;40241;52.684;9.758;2022-12-05T01:38:35;49.93;;;18.10;;
5650;SDS011;40241;52.684;9.758;2022-12-05T01:41:02;53.63;;;19.00;;
5650;SDS011;40241;52.684;9.758;2022-12-05T01:43:29;47.97;;;17.67;;
5650;SDS011;40241;52.684;9.758;2022-12-05T01:45:54;46.83;;;18.10;;
5650;SDS011;40241;52.684;9.758;2022-12-05T01:48:21;49.30;;;18.70;;
5650;SDS011;40241;52.684;9.758;2022-12-05T01:50:58;46.43;;;18.43;;
5650;SDS011;40241;52.684;9.758;2022-12-05T01:53:25;49.33;;;20.00;;
5650;SDS011;40241;52.684;9.758;2022-12-05T01:55:52;47.43;;;21.03;;
5650;SDS011;40241;52.684;9.758;2022-12-05T01:58:18;57.83;;;20.03;;
5650;SDS011;40241;52.684;9.758;2022-12-05T02:00:45;44.67;;;18.63;;
5650;SDS011;40241;52.684;9.758;2022-12-05T02:03:14;49.90;;;19.37;;
5650;SDS011;40241;52.684;9.758;2022-12-05T02:05:43;53.13;;;19.87;;
5650;SDS011;40241;52.684;9.758;2022-12-05T02:08:12;48.60;;;19.70;;
5650;SDS011;40241;52.684;9.758;2022-12-05T02:10:39;46.43;;;19.63;;
5650;SDS011;40241;52.684;9.758;2022-12-05T02:30:21;43.87;;;19.00;;
5650;SDS011;40241;52.684;9.758;2022-12-05T02:43:15;55.90;;;19.47;;
5650;SDS011;40241;52.684;9.758;2022-12-05T02:45:48;43.40;;;17.77;;
5650;SDS011;40241;52.684;9.758;2022-12-05T02:48:17;48.67;;;19.93;;
5650;SDS011;40241;52.684;9.758;2022-12-05T02:50:44;49.20;;;19.40;;
5650;SDS011;40241;52.684;9.758;2022-12-05T02:53:13;51.47;;;18.80;;
5650;SDS011;40241;52.684;9.758;2022-12-05T02:55:41;53.60;;;18.87;;
5650;SDS011;40241;52.684;9.758;2022-12-05T02:58:13;40.03;;;16.23;;
5650;SDS011;40241;52.684;9.758;2022-12-05T03:00:44;43.43;;;17.57;;
5650;SDS011;40241;52.684;9.758;2022-12-05T03:03:13;50.93;;;18.20;;
5650;SDS011;40241;52.684;9.758;2022-12-05T03:08:28;44.40;;;17.67;;
5650;SDS011;40241;52.684;9.758;2022-12-05T03:10:59;53.87;;;18.70;;
5650;SDS011;40241;52.684;9.758;2022-12-05T03:13:28;47.43;;;19.20;;
5650;SDS011;40241;52.684;9.758;2022-12-05T03:16:00;49.20;;;19.40;;
5650;SDS011;40241;52.684;9.758;2022-12-05T03:18:32;50.00;;;20.17;;
5650;SDS011;40241;52.684;9.758;2022-12-05T03:21:06;46.60;;;18.43;;
5650;SDS011;40241;52.684;9.758;2022-12-05T03:23:44;53.13;;;18.90;;
5650;SDS011;40241;52.684;9.758;2022-12-05T03:31:51;46.53;;;18.97;;
5650;SDS011;40241;52.684;9.758;2022-12-05T03:37:27;43.50;;;18.40;;
5650;SDS011;40241;52.684;9.758;2022-12-05T03:40:10;49.87;;;17.00;;
5650;SDS011;40241;52.684;9.758;2022-12-05T03:42:49;43.73;;;17.67;;
5650;SDS011;40241;52.684;9.758;2022-12-05T03:45:21;43.17;;;18.10;;
5650;SDS011;40241;52.684;9.758;2022-12-05T03:47:59;43.27;;;18.70;;
5650;SDS011;40241;52.684;9.758;2022-12-05T03:50:28;55.27;;;19.77;;
5650;SDS011;40241;52.684;9.758;2022-12-05T03:52:56;50.93;;;17.57;;
5650;SDS011;40241;52.684;9.758;2022-12-05T03:55:26;44.10;;;18.30;;
5650;SDS011;40241;52.684;9.758;2022-12-05T03:58:17;45.70;;;16.97;;
5650;SDS011;40241;52.684;9.758;2022-12-05T04:00:53;46.97;;;16.93;;
5650;SDS011;40241;52.684;9.758;2022-12-05T04:03:22;34.90;;;17.10;;
5650;SDS011;40241;52.684;9.758;2022-12-05T04:06:06;39.90;;;16.97;;
5650;SDS011;40241;52.684;9.758;2022-12-05T04:08:39;43.07;;;18.07;;
5650;SDS011;40241;52.684;9.758;2022-12-05T04:11:11;38.47;;;15.70;;
5650;SDS011;40241;52.684;9.758;2022-12-05T04:13:44;46.50;;;16.97;;
5650;SDS011;40241;52.684;9.758;2022-12-05T04:16:17;44.30;;;16.47;;
5650;SDS011;40241;52.684;9.758;2022-12-05T04:21:42;41.70;;;16.17;;
5650;SDS011;40241;52.684;9.758;2022-12-05T04:24:21;44.20;;;16.70;;
5650;SDS011;40241;52.684;9.758;2022-12-05T04:27:28;40.10;;;15.97;;
5650;SDS011;40241;52.684;9.758;2022-12-05T04:35:40;39.27;;;15.07;;
5650;SDS011;40241;52.684;9.758;2022-12-05T04:41:06;41.17;;;15.77;;
5650;SDS011;40241;52.684;9.758;2022-12-05T04:43:39;38.97;;;15.40;;
5650;SDS011;40241;52.684;9.758;2022-12-05T04:46:08;40.90;;;16.77;;
5650;SDS011;40241;52.684;9.758;2022-12-05T04:48:36;45.90;;;15.97;;
5650;SDS011;40241;52.684;9.758;2022-12-05T04:51:04;38.07;;;15.10;;
5650;SDS011;40241;52.684;9.758;2022-12-05T04:53:33;41.37;;;16.47;;
5650;SDS011;40241;52.684;9.758;2022-12-05T04:56:00;36.70;;;15.27;;
5650;SDS011;40241;52.684;9.758;2022-12-05T04:58:29;35.90;;;14.53;;
5650;SDS011;40241;52.684;9.758;2022-12-05T05:03:50;39.00;;;16.53;;
5650;SDS011;40241;52.684;9.758;2022-12-05T05:06:20;45.00;;;16.37;;
5650;SDS011;40241;52.684;9.758;2022-12-05T05:08:47;38.43;;;16.00;;
5650;SDS011;40241;52.684;9.758;2022-12-05T05:11:15;39.37;;;15.80;;
5650;SDS011;40241;52.684;9.758;2022-12-05T05:13:43;35.63;;;14.60;;
5650;SDS011;40241;52.684;9.758;2022-12-05T05:16:16;38.03;;;14.80;;
5650;SDS011;40241;52.684;9.758;2022-12-05T05:18:44;41.50;;;15.20;;
5650;SDS011;40241;52.684;9.758;2022-12-05T05:21:30;37.50;;;15.30;;
5650;SDS011;40241;52.684;9.758;2022-12-05T05:23:57;45.63;;;16.20;;
5650;SDS011;40241;52.684;9.758;2022-12-05T05:26:23;41.30;;;15.73;;
5650;SDS011;40241;52.684;9.758;2022-12-05T05:28:50;32.50;;;16.00;;
5650;SDS011;40241;52.684;9.758;2022-12-05T05:31:16;37.53;;;16.80;;
5650;SDS011;40241;52.684;9.758;2022-12-05T05:33:42;43.13;;;16.30;;
5650;SDS011;40241;52.684;9.758;2022-12-05T05:36:08;36.20;;;15.63;;
5650;SDS011;40241;52.684;9.758;2022-12-05T05:38:39;35.00;;;14.67;;
5650;SDS011;40241;52.684;9.758;2022-12-05T05:41:17;35.53;;;15.10;;
5650;SDS011;40241;52.684;9.758;2022-12-05T05:44:01;32.10;;;13.83;;
5650;SDS011;40241;52.684;9.758;2022-12-05T05:46:30;36.70;;;14.87;;
5650;SDS011;40241;52.684;9.758;2022-12-05T05:48:57;30.50;;;13.10;;
5650;SDS011;40241;52.684;9.758;2022-12-05T05:51:23;35.20;;;14.03;;
5650;SDS011;40241;52.684;9.758;2022-12-05T05:53:53;33.57;;;14.00;;
5650;SDS011;40241;52.684;9.758;2022-12-05T05:56:19;33.23;;;13.70;;
5650;SDS011;40241;52.684;9.758;2022-12-05T05:58:45;28.67;;;14.10;;
5650;SDS011;40241;52.684;9.758;2022-12-05T06:01:16;29.50;;;13.00;;
5650;SDS011;40241;52.684;9.758;2022-12-05T06:03:44;29.20;;;13.10;;
5650;SDS011;40241;52.684;9.758;2022-12-05T06:06:10;31.17;;;14.57;;
5650;SDS011;40241;52.684;9.758;2022-12-05T06:08:39;37.83;;;14.40;;
5650;SDS011;40241;52.684;9.758;2022-12-05T06:11:08;35.90;;;13.77;;
5650;SDS011;40241;52.684;9.758;2022-12-05T06:13:38;29.23;;;12.67;;
5650;SDS011;40241;52.684;9.758;2022-12-05T06:16:04;33.90;;;14.00;;
5650;SDS011;40241;52.684;9.758;2022-12-05T06:18:31;31.80;;;13.87;;
5650;SDS011;40241;52.684;9.758;2022-12-05T06:20:57;31.63;;;14.20;;
5650;SDS011;40241;52.684;9.758;2022-12-05T06:23:23;31.93;;;12.90;;
5650;SDS011;40241;52.684;9.758;2022-12-05T06:25:51;30.60;;;13.37;;
5650;SDS011;40241;52.684;9.758;2022-12-05T06:28:18;31.70;;;15.17;;
5650;SDS011;40241;52.684;9.758;2022-12-05T06:30:45;34.70;;;12.80;;
5650;SDS011;40241;52.684;9.758;2022-12-05T06:33:10;39.07;;;13.07;;
5650;SDS011;40241;52.684;9.758;2022-12-05T06:35:36;28.87;;;12.00;;
5650;SDS011;40241;52.684;9.758;2022-12-05T06:38:02;28.27;;;12.77;;
5650;SDS011;40241;52.684;9.758;2022-12-05T06:40:28;29.77;;;13.40;;
5650;SDS011;40241;52.684;9.758;2022-12-05T06:42:53;31.70;;;13.37;;
5650;SDS011;40241;52.684;9.758;2022-12-05T06:45:19;33.03;;;12.73;;
5650;SDS011;40241;52.684;9.758;2022-12-05T06:47:45;26.43;;;11.60;;
5650;SDS011;40241;52.684;9.758;2022-12-05T06:50:10;25.70;;;12.10;;
5650;SDS011;40241;52.684;9.758;2022-12-05T06:52:35;32.37;;;13.20;;
5650;SDS011;40241;52.684;9.758;2022-12-05T06:55:01;32.60;;;13.50;;
5650;SDS011;40241;52.684;9.758;2022-12-05T06:57:27;29.10;;;13.27;;
5650;SDS011;40241;52.684;9.758;2022-12-05T06:59:52;29.47;;;14.07;;
5650;SDS011;40241;52.684;9.758;2022-12-05T07:02:37;28.00;;;12.90;;
5650;SDS011;40241;52.684;9.758;2022-12-05T07:05:05;26.27;;;11.40;;
5650;SDS011;40241;52.684;9.758;2022-12-05T07:07:34;29.60;;;12.60;;
5650;SDS011;40241;52.684;9.758;2022-12-05T07:09:59;24.87;;;11.57;;
5650;SDS011;40241;52.684;9.758;2022-12-05T07:12:25;26.00;;;13.33;;
5650;SDS011;40241;52.684;9.758;2022-12-05T07:14:50;26.77;;;11.20;;
5650;SDS011;40241;52.684;9.758;2022-12-05T07:17:19;24.53;;;11.53;;
5650;SDS011;40241;52.684;9.758;2022-12-05T07:19:48;27.53;;;12.40;;
5650;SDS011;40241;52.684;9.758;2022-12-05T07:22:15;24.57;;;10.90;;
5650;SDS011;40241;52.684;9.758;2022-12-05T07:24:44;27.83;;;12.53;;
5650;SDS011;40241;52.684;9.758;2022-12-05T07:27:10;27.67;;;11.83;;
5650;SDS011;40241;52.684;9.758;2022-12-05T07:29:35;22.57;;;11.30;;
5650;SDS011;40241;52.684;9.758;2022-12-05T07:32:01;28.30;;;12.73;;
5650;SDS011;40241;52.684;9.758;2022-12-05T07:34:27;25.17;;;10.93;;
5650;SDS011;40241;52.684;9.758;2022-12-05T07:36:52;27.37;;;11.97;;
5650;SDS011;40241;52.684;9.758;2022-12-05T07:39:17;28.73;;;11.93;;
5650;SDS011;40241;52.684;9.758;2022-12-05T07:41:43;25.67;;;11.83;;
5650;SDS011;40241;52.684;9.758;2022-12-05T07:44:09;25.27;;;11.73;;
5650;SDS011;40241;52.684;9.758;2022-12-05T07:46:36;21.47;;;10.97;;
5650;SDS011;40241;52.684;9.758;2022-12-05T07:49:02;27.10;;;12.23;;
5650;SDS011;40241;52.684;9.758;2022-12-05T07:51:28;24.77;;;11.50;;
5650;SDS011;40241;52.684;9.758;2022-12-05T07:53:54;29.23;;;11.70;;
5650;SDS011;40241;52.684;9.758;2022-12-05T07:56:19;25.80;;;11.40;;
5650;SDS011;40241;52.684;9.758;2022-12-05T07:58:46;25.93;;;11.60;;
5650;SDS011;40241;52.684;9.758;2022-12-05T08:01:20;27.57;;;11.53;;
5650;SDS011;40241;52.684;9.758;2022-12-05T08:03:47;27.60;;;12.00;;
5650;SDS011;40241;52.684;9.758;2022-12-05T08:06:13;26.57;;;11.70;;
5650;SDS011;40241;52.684;9.758;2022-12-05T08:08:40;21.63;;;11.33;;
5650;SDS011;40241;52.684;9.758;2022-12-05T08:13:36;23.90;;;12.20;;
5650;SDS011;40241;52.684;9.758;2022-12-05T08:16:02;26.43;;;12.83;;
5650;SDS011;40241;52.684;9.758;2022-12-05T08:18:30;21.80;;;12.50;;
5650;SDS011;40241;52.684;9.758;2022-12-05T08:21:00;24.70;;;12.20;;
5650;SDS011;40241;52.684;9.758;2022-12-05T08:23:36;30.67;;;12.83;;
5650;SDS011;40241;52.684;9.758;2022-12-05T08:26:08;27.77;;;12.80;;
5650;SDS011;40241;52.684;9.758;2022-12-05T08:28:35;22.80;;;11.07;;
5650;SDS011;40241;52.684;9.758;2022-12-05T08:33:33;31.03;;;12.47;;
5650;SDS011;40241;52.684;9.758;2022-12-05T08:36:03;21.80;;;11.73;;
5650;SDS011;40241;52.684;9.758;2022-12-05T08:38:30;28.57;;;12.30;;
5650;SDS011;40241;52.684;9.758;2022-12-05T08:40:55;25.30;;;11.90;;
5650;SDS011;40241;52.684;9.758;2022-12-05T08:43:24;26.23;;;12.47;;
5650;SDS011;40241;52.684;9.758;2022-12-05T08:45:50;26.80;;;12.90;;
5650;SDS011;40241;52.684;9.758;2022-12-05T08:48:16;25.33;;;11.53;;
5650;SDS011;40241;52.684;9.758;2022-12-05T08:50:41;25.03;;;11.60;;
5650;SDS011;40241;52.684;9.758;2022-12-05T08:53:06;28.63;;;13.53;;
5650;SDS011;40241;52.684;9.758;2022-12-05T08:55:35;26.33;;;11.60;;
5650;SDS011;40241;52.684;9.758;2022-12-05T08:58:01;25.63;;;12.10;;
5650;SDS011;40241;52.684;9.758;2022-12-05T09:00:27;25.07;;;12.40;;
5650;SDS011;40241;52.684;9.758;2022-12-05T09:02:52;30.20;;;12.60;;
5650;SDS011;40241;52.684;9.758;2022-12-05T09:05:17;21.77;;;10.87;;
5650;SDS011;40241;52.684;9.758;2022-12-05T09:07:43;24.87;;;11.70;;
5650;SDS011;40241;52.684;9.758;2022-12-05T09:10:08;24.20;;;10.93;;
5650;SDS011;40241;52.684;9.758;2022-12-05T09:12:35;28.47;;;13.27;;
5650;SDS011;40241;52.684;9.758;2022-12-05T09:15:01;30.67;;;12.87;;
5650;SDS011;40241;52.684;9.758;2022-12-05T09:17:26;24.67;;;11.37;;
5650;SDS011;40241;52.684;9.758;2022-12-05T09:19:52;24.20;;;12.00;;
5650;SDS011;40241;52.684;9.758;2022-12-05T09:22:18;28.27;;;12.33;;
5650;SDS011;40241;52.684;9.758;2022-12-05T09:24:43;29.70;;;12.67;;
5650;SDS011;40241;52.684;9.758;2022-12-05T09:27:09;27.03;;;12.10;;
5650;SDS011;40241;52.684;9.758;2022-12-05T09:29:34;23.27;;;11.50;;
5650;SDS011;40241;52.684;9.758;2022-12-05T09:31:59;22.80;;;10.30;;
5650;SDS011;40241;52.684;9.758;2022-12-05T09:34:25;20.63;;;10.93;;
5650;SDS011;40241;52.684;9.758;2022-12-05T09:36:51;28.77;;;12.03;;
5650;SDS011;40241;52.684;9.758;2022-12-05T09:39:16;22.70;;;11.73;;
5650;SDS011;40241;52.684;9.758;2022-12-05T09:42:07;25.73;;;11.57;;
5650;SDS011;40241;52.684;9.758;2022-12-05T09:47:47;18.03;;;9.47;;
5650;SDS011;40241;52.684;9.758;2022-12-05T09:50:20;27.00;;;12.27;;
5650;SDS011;40241;52.684;9.758;2022-12-05T09:55:22;18.03;;;9.77;;
5650;SDS011;40241;52.684;9.758;2022-12-05T09:57:57;23.97;;;10.90;;
5650;SDS011;40241;52.684;9.758;2022-12-05T10:00:26;20.47;;;10.50;;
5650;SDS011;40241;52.684;9.758;2022-12-05T10:03:00;23.37;;;11.40;;
5650;SDS011;40241;52.684;9.758;2022-12-05T10:05:28;21.17;;;11.13;;
5650;SDS011;40241;52.684;9.758;2022-12-05T10:08:23;22.57;;;11.43;;
5650;SDS011;40241;52.684;9.758;2022-12-05T10:16:14;21.80;;;11.13;;
5650;SDS011;40241;52.684;9.758;2022-12-05T10:18:47;27.70;;;10.07;;
5650;SDS011;40241;52.684;9.758;2022-12-05T10:21:27;17.67;;;9.30;;
5650;SDS011;40241;52.684;9.758;2022-12-05T10:23:58;20.20;;;9.63;;
5650;SDS011;40241;52.684;9.758;2022-12-05T10:26:29;22.83;;;10.20;;
5650;SDS011;40241;52.684;9.758;2022-12-05T10:31:41;20.63;;;9.87;;
5650;SDS011;40241;52.684;9.758;2022-12-05T10:37:09;22.83;;;10.50;;
5650;SDS011;40241;52.684;9.758;2022-12-05T10:39:40;22.27;;;10.50;;
5650;SDS011;40241;52.684;9.758;2022-12-05T10:42:08;20.43;;;10.67;;
5650;SDS011;40241;52.684;9.758;2022-12-05T10:44:39;23.27;;;9.33;;
5650;SDS011;40241;52.684;9.758;2022-12-05T10:47:05;24.27;;;11.03;;
5650;SDS011;40241;52.684;9.758;2022-12-05T10:49:30;19.80;;;11.13;;
5650;SDS011;40241;52.684;9.758;2022-12-05T10:51:58;21.57;;;10.10;;
5650;SDS011;40241;52.684;9.758;2022-12-05T10:54:25;19.10;;;9.33;;
5650;SDS011;40241;52.684;9.758;2022-12-05T10:56:54;19.60;;;10.47;;
5650;SDS011;40241;52.684;9.758;2022-12-05T10:59:21;21.33;;;10.00;;
5650;SDS011;40241;52.684;9.758;2022-12-05T11:01:50;19.00;;;9.50;;
5650;SDS011;40241;52.684;9.758;2022-12-05T11:04:22;24.00;;;9.90;;
5650;SDS011;40241;52.684;9.758;2022-12-05T11:07:09;23.97;;;10.20;;
5650;SDS011;40241;52.684;9.758;2022-12-05T11:09:48;18.10;;;9.10;;
5650;SDS011;40241;52.684;9.758;2022-12-05T11:15:02;14.13;;;8.57;;
5650;SDS011;40241;52.684;9.758;2022-12-05T11:17:37;20.40;;;10.10;;
5650;SDS011;40241;52.684;9.758;2022-12-05T11:22:48;19.90;;;9.70;;
5650;SDS011;40241;52.684;9.758;2022-12-05T11:33:36;16.30;;;8.03;;
5650;SDS011;40241;52.684;9.758;2022-12-05T11:36:03;18.17;;;8.57;;
5650;SDS011;40241;52.684;9.758;2022-12-05T11:38:35;14.77;;;7.97;;
5650;SDS011;40241;52.684;9.758;2022-12-05T11:41:08;14.70;;;8.50;;
5650;SDS011;40241;52.684;9.758;2022-12-05T11:43:51;15.40;;;7.17;;
5650;SDS011;40241;52.684;9.758;2022-12-05T11:51:55;11.03;;;7.17;;
5650;SDS011;40241;52.684;9.758;2022-12-05T12:00:15;12.07;;;6.47;;
5650;SDS011;40241;52.684;9.758;2022-12-05T12:03:37;10.87;;;5.70;;
5650;SDS011;40241;52.684;9.758;2022-12-05T12:11:28;11.63;;;6.73;;
5650;SDS011;40241;52.684;9.758;2022-12-05T12:20:02;9.67;;;5.30;;
5650;SDS011;40241;52.684;9.758;2022-12-05T12:25:31;10.73;;;5.60;;
5650;SDS011;40241;52.684;9.758;2022-12-05T12:31:08;10.60;;;5.80;;
5650;SDS011;40241;52.684;9.758;2022-12-05T12:50:37;9.93;;;5.43;;
5650;SDS011;40241;52.684;9.758;2022-12-05T12:55:40;7.50;;;4.50;;
5650;SDS011;40241;52.684;9.758;2022-12-05T13:04:19;8.00;;;5.27;;
5650;SDS011;40241;52.684;9.758;2022-12-05T13:06:57;7.30;;;6.00;;
5650;SDS011;40241;52.684;9.758;2022-12-05T13:11:55;7.93;;;5.20;;
5650;SDS011;40241;52.684;9.758;2022-12-05T13:14:28;7.80;;;5.10;;
5650;SDS011;40241;52.684;9.758;2022-12-05T13:16:57;6.67;;;4.87;;
5650;SDS011;40241;52.684;9.758;2022-12-05T13:21:50;7.10;;;4.80;;
5650;SDS011;40241;52.684;9.758;2022-12-05T13:24:18;5.83;;;4.23;;
5650;SDS011;40241;52.684;9.758;2022-12-05T13:26:48;7.30;;;4.50;;
5650;SDS011;40241;52.684;9.758;2022-12-05T13:29:18;6.00;;;3.90;;
5650;SDS011;40241;52.684;9.758;2022-12-05T13:31:51;5.27;;;4.10;;
5650;SDS011;40241;52.684;9.758;2022-12-05T13:37:10;8.77;;;4.87;;
5650;SDS011;40241;52.684;9.758;2022-12-05T13:40:01;5.00;;;3.77;;
5650;SDS011;40241;52.684;9.758;2022-12-05T13:42:46;5.53;;;4.10;;
5650;SDS011;40241;52.684;9.758;2022-12-05T13:45:16;6.40;;;4.53;;
5650;SDS011;40241;52.684;9.758;2022-12-05T13:50:16;7.40;;;4.40;;
5650;SDS011;40241;52.684;9.758;2022-12-05T13:52:59;8.73;;;4.70;;
5650;SDS011;40241;52.684;9.758;2022-12-05T13:58:47;6.03;;;4.70;;
5650;SDS011;40241;52.684;9.758;2022-12-05T14:03:58;5.77;;;4.10;;
5650;SDS011;40241;52.684;9.758;2022-12-05T14:15:37;7.20;;;4.93;;
5650;SDS011;40241;52.684;9.758;2022-12-05T14:17:47;8.53;;;5.33;;
5650;SDS011;40241;52.684;9.758;2022-12-05T14:34:27;8.13;;;5.30;;
5650;SDS011;40241;52.684;9.758;2022-12-05T14:42:02;11.33;;;5.80;;
5650;SDS011;40241;52.684;9.758;2022-12-05T14:44:32;7.70;;;5.90;;
5650;SDS011;40241;52.684;9.758;2022-12-05T14:46:58;10.47;;;6.27;;
5650;SDS011;40241;52.684;9.758;2022-12-05T14:52:25;10.90;;;6.17;;
5650;SDS011;40241;52.684;9.758;2022-12-05T14:54:53;10.10;;;6.30;;
5650;SDS011;40241;52.684;9.758;2022-12-05T14:57:34;7.93;;;5.30;;
5650;SDS011;40241;52.684;9.758;2022-12-05T15:00:06;8.90;;;5.50;;
5650;SDS011;40241;52.684;9.758;2022-12-05T15:02:42;10.80;;;6.77;;
5650;SDS011;40241;52.684;9.758;2022-12-05T15:05:24;10.87;;;6.73;;
5650;SDS011;40241;52.684;9.758;2022-12-05T15:07:54;8.37;;;6.03;;
5650;SDS011;40241;52.684;9.758;2022-12-05T15:10:32;9.63;;;6.70;;
5650;SDS011;40241;52.684;9.758;2022-12-05T15:13:08;10.47;;;6.33;;
5650;SDS011;40241;52.684;9.758;2022-12-05T15:18:19;13.70;;;6.07;;
5650;SDS011;40241;52.684;9.758;2022-12-05T15:26:17;14.50;;;6.60;;
5650;SDS011;40241;52.684;9.758;2022-12-05T15:28:56;9.87;;;5.90;;
5650;SDS011;40241;52.684;9.758;2022-12-05T15:31:32;9.37;;;5.17;;
5650;SDS011;40241;52.684;9.758;2022-12-05T15:34:02;8.30;;;5.70;;
5650;SDS011;40241;52.684;9.758;2022-12-05T15:36:36;9.90;;;5.80;;
5650;SDS011;40241;52.684;9.758;2022-12-05T15:39:16;8.70;;;5.67;;
5650;SDS011;40241;52.684;9.758;2022-12-05T15:41:47;10.30;;;5.93;;
5650;SDS011;40241;52.684;9.758;2022-12-05T15:44:14;9.97;;;5.97;;
5650;SDS011;40241;52.684;9.758;2022-12-05T15:46:40;9.80;;;6.00;;
5650;SDS011;40241;52.684;9.758;2022-12-05T15:49:23;12.47;;;6.73;;
5650;SDS011;40241;52.684;9.758;2022-12-05T15:51:57;10.83;;;6.17;;
5650;SDS011;40241;52.684;9.758;2022-12-05T15:54:32;14.40;;;7.07;;
5650;SDS011;40241;52.684;9.758;2022-12-05T15:57:03;9.57;;;6.23;;
5650;SDS011;40241;52.684;9.758;2022-12-05T15:59:41;11.00;;;6.53;;
5650;SDS011;40241;52.684;9.758;2022-12-05T16:02:24;11.10;;;6.37;;
5650;SDS011;40241;52.684;9.758;2022-12-05T16:05:01;10.67;;;6.63;;
5650;SDS011;40241;52.684;9.758;2022-12-05T16:07:27;10.53;;;6.23;;
5650;SDS011;40241;52.684;9.758;2022-12-05T16:09:55;12.17;;;6.83;;
5650;SDS011;40241;52.684;9.758;2022-12-05T16:12:24;11.90;;;6.17;;
5650;SDS011;40241;52.684;9.758;2022-12-05T16:14:55;12.57;;;6.80;;
5650;SDS011;40241;52.684;9.758;2022-12-05T16:17:24;11.53;;;6.57;;
5650;SDS011;40241;52.684;9.758;2022-12-05T16:19:52;10.87;;;5.70;;
5650;SDS011;40241;52.684;9.758;2022-12-05T16:22:33;8.27;;;5.67;;
5650;SDS011;40241;52.684;9.758;2022-12-05T16:24:59;12.50;;;7.30;;
5650;SDS011;40241;52.684;9.758;2022-12-05T16:27:35;13.00;;;7.40;;
5650;SDS011;40241;52.684;9.758;2022-12-05T16:32:31;11.03;;;6.07;;
5650;SDS011;40241;52.684;9.758;2022-12-05T16:34:59;11.93;;;6.43;;
5650;SDS011;40241;52.684;9.758;2022-12-05T16:37:26;13.73;;;6.00;;
5650;SDS011;40241;52.684;9.758;2022-12-05T16:39:53;10.60;;;6.93;;
5650;SDS011;40241;52.684;9.758;2022-12-05T16:42:25;11.07;;;6.27;;
5650;SDS011;40241;52.684;9.758;2022-12-05T16:44:56;11.60;;;6.27;;
5650;SDS011;40241;52.684;9.758;2022-12-05T16:53:01;10.70;;;5.93;;
5650;SDS011;40241;52.684;9.758;2022-12-05T16:55:46;8.80;;;5.30;;
5650;SDS011;40241;52.684;9.758;2022-12-05T16:58:15;9.33;;;5.87;;
5650;SDS011;40241;52.684;9.758;2022-12-05T17:00:45;11.40;;;6.43;;
5650;SDS011;40241;52.684;9.758;2022-12-05T17:03:11;12.80;;;6.67;;
5650;SDS011;40241;52.684;9.758;2022-12-05T17:05:37;9.30;;;5.93;;
5650;SDS011;40241;52.684;9.758;2022-12-05T17:08:03;10.70;;;6.53;;
5650;SDS011;40241;52.684;9.758;2022-12-05T17:10:28;13.40;;;6.03;;
5650;SDS011;40241;52.684;9.758;2022-12-05T17:12:54;9.23;;;5.53;;
5650;SDS011;40241;52.684;9.758;2022-12-05T17:15:19;12.77;;;6.67;;
5650;SDS011;40241;52.684;9.758;2022-12-05T17:17:45;11.40;;;6.17;;
5650;SDS011;40241;52.684;9.758;2022-12-05T17:20:11;10.97;;;6.50;;
5650;SDS011;40241;52.684;9.758;2022-12-05T17:22:37;12.97;;;7.17;;
5650;SDS011;40241;52.684;9.758;2022-12-05T17:25:37;10.33;;;6.67;;
5650;SDS011;40241;52.684;9.758;2022-12-05T17:28:00;10.07;;;6.17;;
5650;SDS011;40241;52.684;9.758;2022-12-05T17:30:25;8.40;;;5.53;;
5650;SDS011;40241;52.684;9.758;2022-12-05T17:32:50;12.23;;;5.83;;
5650;SDS011;40241;52.684;9.758;2022-12-05T17:35:17;12.03;;;5.77;;
5650;SDS011;40241;52.684;9.758;2022-12-05T17:37:44;12.93;;;5.93;;
5650;SDS011;40241;52.684;9.758;2022-12-05T17:40:10;11.17;;;6.20;;
5650;SDS011;40241;52.684;9.758;2022-12-05T17:42:37;12.27;;;7.07;;
5650;SDS011;40241;52.684;9.758;2022-12-05T17:45:03;13.50;;;6.53;;
5650;SDS011;40241;52.684;9.758;2022-12-05T17:47:30;12.10;;;6.43;;
5650;SDS011;40241;52.684;9.758;2022-12-05T17:49:55;12.97;;;7.07;;
5650;SDS011;40241;52.684;9.758;2022-12-05T17:52:20;13.63;;;8.13;;
5650;SDS011;40241;52.684;9.758;2022-12-05T17:54:46;13.70;;;8.30;;
5650;SDS011;40241;52.684;9.758;2022-12-05T17:57:11;12.63;;;7.23;;
5650;SDS011;40241;52.684;9.758;2022-12-05T17:59:37;17.57;;;8.20;;
5650;SDS011;40241;52.684;9.758;2022-12-05T18:02:02;12.53;;;6.87;;
5650;SDS011;40241;52.684;9.758;2022-12-05T18:04:27;13.93;;;7.33;;
5650;SDS011;40241;52.684;9.758;2022-12-05T18:06:53;12.00;;;7.10;;
5650;SDS011;40241;52.684;9.758;2022-12-05T18:09:18;17.80;;;8.17;;
5650;SDS011;40241;52.684;9.758;2022-12-05T18:11:43;12.80;;;7.50;;
5650;SDS011;40241;52.684;9.758;2022-12-05T18:14:09;14.27;;;7.33;;
5650;SDS011;40241;52.684;9.758;2022-12-05T18:16:34;17.97;;;7.90;;
5650;SDS011;40241;52.684;9.758;2022-12-05T18:18:59;15.23;;;6.90;;
5650;SDS011;40241;52.684;9.758;2022-12-05T18:21:25;16.10;;;7.70;;
5650;SDS011;40241;52.684;9.758;2022-12-05T18:23:51;15.53;;;7.40;;
5650;SDS011;40241;52.684;9.758;2022-12-05T18:26:17;19.50;;;8.00;;